createdAt,value
2016-08-09T00:00:09.864Z,1012.03
2016-08-09T00:01:09.850Z,1012.03
2016-08-09T00:02:09.842Z,1012.01
2016-08-09T00:03:09.831Z,1012.02
2016-08-09T00:04:09.819Z,1012.06
2016-08-09T00:05:09.809Z,1012.1
2016-08-09T00:06:09.800Z,1012.09
2016-08-09T00:07:09.794Z,1012.09
2016-08-09T00:08:09.777Z,1012.07
2016-08-09T00:09:09.772Z,1012.05
2016-08-09T00:10:09.758Z,1012.05
2016-08-09T00:11:09.747Z,1012.1
2016-08-09T00:12:09.739Z,1012.05
2016-08-09T00:13:09.728Z,1012.04
2016-08-09T00:14:09.716Z,1011.95
2016-08-09T00:15:09.705Z,1012.02
2016-08-09T00:16:09.696Z,1011.97
2016-08-09T00:17:09.684Z,1012.04
2016-08-09T00:18:09.672Z,1012.03
2016-08-09T00:19:09.664Z,1011.99
2016-08-09T00:20:09.652Z,1011.98
2016-08-09T00:21:09.645Z,1011.96
2016-08-09T00:22:09.646Z,1012
2016-08-09T00:23:09.620Z,1011.96
2016-08-09T00:24:09.609Z,1011.99
2016-08-09T00:25:09.608Z,1011.97
2016-08-09T00:26:09.594Z,1011.96
2016-08-09T00:27:09.579Z,1011.95
2016-08-09T00:28:09.581Z,1011.96
2016-08-09T00:29:09.559Z,1011.94
2016-08-09T00:30:09.548Z,1011.93
2016-08-09T00:31:09.539Z,1011.92
2016-08-09T00:32:09.526Z,1011.87
2016-08-09T00:33:09.515Z,1011.84
2016-08-09T00:34:09.508Z,1011.81
2016-08-09T00:35:09.496Z,1011.82
2016-08-09T00:36:09.486Z,1011.86
2016-08-09T00:37:09.476Z,1011.84
2016-08-09T00:38:09.465Z,1011.88
2016-08-09T00:39:09.454Z,1011.87
2016-08-09T00:40:09.442Z,1011.88
2016-08-09T00:41:09.433Z,1011.89
2016-08-09T00:42:09.422Z,1011.89
2016-08-09T00:43:09.411Z,1011.91
2016-08-09T00:44:09.402Z,1011.91
2016-08-09T00:45:09.390Z,1011.91
2016-08-09T00:46:09.381Z,1011.93
2016-08-09T00:47:09.370Z,1011.91
2016-08-09T00:48:09.360Z,1011.98
2016-08-09T00:49:09.348Z,1011.95
2016-08-09T00:50:09.340Z,1011.91
2016-08-09T00:51:09.327Z,1011.92
2016-08-09T00:52:09.325Z,1011.87
2016-08-09T00:53:09.306Z,1011.89
2016-08-09T00:54:09.296Z,1011.92
2016-08-09T00:55:09.300Z,1011.93
2016-08-09T00:56:09.275Z,1011.91
2016-08-09T00:57:09.269Z,1011.93
2016-08-09T00:58:09.253Z,1011.89
2016-08-09T00:59:09.243Z,1011.94
2016-08-09T01:00:09.233Z,1011.92
2016-08-09T01:01:09.223Z,1011.94
2016-08-09T01:02:09.213Z,1011.95
2016-08-09T01:03:09.204Z,1011.98
2016-08-09T01:04:09.393Z,1011.95
2016-08-09T01:05:09.191Z,1012.01
2016-08-09T01:06:09.173Z,1012
2016-08-09T01:07:09.159Z,1011.97
2016-08-09T01:08:09.149Z,1011.98
2016-08-09T01:09:09.137Z,1011.92
2016-08-09T01:10:09.128Z,1011.92
2016-08-09T01:11:09.117Z,1011.94
2016-08-09T01:12:09.107Z,1011.91
2016-08-09T01:13:09.099Z,1011.93
2016-08-09T01:14:09.085Z,1011.97
2016-08-09T01:15:09.074Z,1012.01
2016-08-09T01:16:09.068Z,1012
2016-08-09T01:17:09.055Z,1011.98
2016-08-09T01:18:09.046Z,1011.97
2016-08-09T01:19:09.033Z,1011.97
2016-08-09T01:20:09.023Z,1011.96
2016-08-09T01:21:09.014Z,1011.95
2016-08-09T01:22:09.003Z,1011.93
2016-08-09T01:23:08.994Z,1011.92
2016-08-09T01:24:08.981Z,1011.91
2016-08-09T01:25:08.973Z,1011.93
2016-08-09T01:26:08.960Z,1011.93
2016-08-09T01:27:08.951Z,1011.89
2016-08-09T01:28:08.939Z,1011.94
2016-08-09T01:29:08.928Z,1011.89
2016-08-09T01:30:08.920Z,1011.94
2016-08-09T01:31:08.907Z,1011.92
2016-08-09T01:32:08.900Z,1011.91
2016-08-09T01:33:08.890Z,1011.89
2016-08-09T01:34:08.877Z,1011.88
2016-08-09T01:35:08.866Z,1011.89
2016-08-09T01:36:08.858Z,1011.85
2016-08-09T01:37:08.848Z,1011.85
2016-08-09T01:38:08.838Z,1011.88
2016-08-09T01:39:08.828Z,1011.86
2016-08-09T01:40:08.814Z,1011.86
2016-08-09T01:41:08.806Z,1011.86
2016-08-09T01:42:08.796Z,1011.87
2016-08-09T01:43:08.788Z,1011.91
2016-08-09T01:44:08.773Z,1011.88
2016-08-09T01:45:08.768Z,1011.89
2016-08-09T01:46:08.753Z,1011.92
2016-08-09T01:47:08.742Z,1011.88
2016-08-09T01:48:08.732Z,1011.91
2016-08-09T01:49:08.723Z,1011.88
2016-08-09T01:50:08.714Z,1011.91
2016-08-09T01:51:08.702Z,1011.88
2016-08-09T01:52:08.693Z,1011.87
2016-08-09T01:53:08.685Z,1011.87
2016-08-09T01:54:08.671Z,1011.85
2016-08-09T01:55:08.659Z,1011.88
2016-08-09T01:56:08.650Z,1011.83
2016-08-09T01:57:08.641Z,1011.83
2016-08-09T01:58:08.628Z,1011.78
2016-08-09T01:59:08.619Z,1011.76
2016-08-09T02:00:08.609Z,1011.77
2016-08-09T02:01:08.600Z,1011.78
2016-08-09T02:02:08.587Z,1011.77
2016-08-09T02:03:08.578Z,1011.75
2016-08-09T02:04:08.566Z,1011.78
2016-08-09T02:05:08.557Z,1011.81
2016-08-09T02:06:08.547Z,1011.76
2016-08-09T02:07:08.536Z,1011.74
2016-08-09T02:08:08.526Z,1011.73
2016-08-09T02:09:08.515Z,1011.74
2016-08-09T02:10:08.505Z,1011.77
2016-08-09T02:11:08.497Z,1011.77
2016-08-09T02:12:08.486Z,1011.8
2016-08-09T02:13:08.473Z,1011.82
2016-08-09T02:14:08.464Z,1011.84
2016-08-09T02:15:08.454Z,1011.8
2016-08-09T02:16:08.446Z,1011.86
2016-08-09T02:17:08.432Z,1011.8
2016-08-09T02:18:08.423Z,1011.86
2016-08-09T02:19:08.413Z,1011.85
2016-08-09T02:20:08.400Z,1011.84
2016-08-09T02:21:08.392Z,1011.85
2016-08-09T02:22:08.385Z,1011.85
2016-08-09T02:23:08.372Z,1011.86
2016-08-09T02:24:08.360Z,1011.87
2016-08-09T02:25:08.350Z,1011.88
2016-08-09T02:26:08.342Z,1011.88
2016-08-09T02:27:08.332Z,1011.86
2016-08-09T02:28:08.319Z,1011.85
2016-08-09T02:29:08.310Z,1011.85
2016-08-09T02:30:08.299Z,1011.85
2016-08-09T02:31:08.288Z,1011.83
2016-08-09T02:32:08.280Z,1011.88
2016-08-09T02:33:08.270Z,1011.86
2016-08-09T02:34:08.258Z,1011.82
2016-08-09T02:35:08.246Z,1011.83
2016-08-09T02:36:08.237Z,1011.81
2016-08-09T02:37:08.225Z,1011.81
2016-08-09T02:38:08.217Z,1011.81
2016-08-09T02:39:08.204Z,1011.81
2016-08-09T02:40:08.197Z,1011.82
2016-08-09T02:41:08.186Z,1011.83
2016-08-09T02:42:08.174Z,1011.82
2016-08-09T02:43:08.167Z,1011.81
2016-08-09T02:44:08.156Z,1011.82
2016-08-09T02:45:08.142Z,1011.83
2016-08-09T02:46:08.131Z,1011.87
2016-08-09T02:47:08.123Z,1011.86
2016-08-09T02:48:08.113Z,1011.85
2016-08-09T02:49:08.101Z,1011.89
2016-08-09T02:50:08.091Z,1011.86
2016-08-09T02:51:08.082Z,1011.86
2016-08-09T02:52:08.072Z,1011.91
2016-08-09T02:53:08.061Z,1011.84
2016-08-09T02:54:08.051Z,1011.88
2016-08-09T02:55:08.040Z,1011.88
2016-08-09T02:56:08.035Z,1011.87
2016-08-09T02:57:08.020Z,1011.94
2016-08-09T02:58:08.008Z,1011.94
2016-08-09T02:59:07.998Z,1011.98
2016-08-09T03:00:07.988Z,1011.96
2016-08-09T03:01:07.977Z,1011.95
2016-08-09T03:02:07.967Z,1011.97
2016-08-09T03:03:07.956Z,1011.96
2016-08-09T03:04:08.149Z,1011.94
2016-08-09T03:05:07.936Z,1011.96
2016-08-09T03:06:07.928Z,1011.91
2016-08-09T03:07:07.918Z,1011.89
2016-08-09T03:08:07.905Z,1011.95
2016-08-09T03:09:07.896Z,1011.93
2016-08-09T03:10:07.885Z,1011.94
2016-08-09T03:11:07.874Z,1011.95
2016-08-09T03:12:07.865Z,1011.93
2016-08-09T03:13:07.857Z,1011.93
2016-08-09T03:14:07.845Z,1011.94
2016-08-09T03:15:07.834Z,1011.93
2016-08-09T03:16:07.825Z,1011.87
2016-08-09T03:17:07.812Z,1011.86
2016-08-09T03:18:07.802Z,1011.84
2016-08-09T03:19:07.790Z,1011.83
2016-08-09T03:20:07.781Z,1011.83
2016-08-09T03:21:07.771Z,1011.84
2016-08-09T03:22:07.760Z,1011.84
2016-08-09T03:23:07.751Z,1011.84
2016-08-09T03:24:07.748Z,1011.83
2016-08-09T03:25:07.730Z,1011.81
2016-08-09T03:26:07.719Z,1011.78
2016-08-09T03:27:07.708Z,1011.83
2016-08-09T03:28:07.702Z,1011.84
2016-08-09T03:29:07.689Z,1011.85
2016-08-09T03:30:07.678Z,1011.89
2016-08-09T03:31:07.669Z,1011.89
2016-08-09T03:32:07.658Z,1011.9
2016-08-09T03:33:07.649Z,1011.91
2016-08-09T03:34:07.637Z,1011.87
2016-08-09T03:35:07.626Z,1011.9
2016-08-09T03:36:07.616Z,1011.86
2016-08-09T03:37:07.607Z,1011.86
2016-08-09T03:38:07.595Z,1011.86
2016-08-09T03:39:07.615Z,1011.85
2016-08-09T03:40:07.575Z,1011.82
2016-08-09T03:41:07.565Z,1011.83
2016-08-09T03:42:07.557Z,1011.82
2016-08-09T03:43:07.544Z,1011.82
2016-08-09T03:44:07.540Z,1011.82
2016-08-09T03:45:07.526Z,1011.89
2016-08-09T03:46:07.514Z,1011.88
2016-08-09T03:47:07.503Z,1011.9
2016-08-09T03:48:07.492Z,1011.91
2016-08-09T03:49:07.483Z,1011.9
2016-08-09T03:50:07.477Z,1011.93
2016-08-09T03:51:07.465Z,1011.92
2016-08-09T03:52:07.455Z,1011.9
2016-08-09T03:53:07.440Z,1011.88
2016-08-09T03:54:07.431Z,1011.9
2016-08-09T03:55:07.420Z,1011.88
2016-08-09T03:56:07.410Z,1011.87
2016-08-09T03:57:07.401Z,1011.86
2016-08-09T03:58:07.397Z,1011.89
2016-08-09T03:59:07.378Z,1011.89
2016-08-09T04:00:07.370Z,1011.87
2016-08-09T04:01:07.363Z,1011.89
2016-08-09T04:02:07.350Z,1011.84
2016-08-09T04:03:07.337Z,1011.86
2016-08-09T04:04:07.327Z,1011.84
2016-08-09T04:05:07.322Z,1011.86
2016-08-09T04:06:07.309Z,1011.88
2016-08-09T04:07:07.296Z,1011.85
2016-08-09T04:08:07.286Z,1011.86
2016-08-09T04:09:07.277Z,1011.85
2016-08-09T04:10:07.267Z,1011.85
2016-08-09T04:11:07.256Z,1011.85
2016-08-09T04:12:07.247Z,1011.83
2016-08-09T04:13:07.238Z,1011.86
2016-08-09T04:14:07.224Z,1011.89
2016-08-09T04:15:07.215Z,1011.9
2016-08-09T04:16:07.204Z,1011.92
2016-08-09T04:17:07.194Z,1011.96
2016-08-09T04:18:07.182Z,1011.94
2016-08-09T04:19:07.174Z,1011.95
2016-08-09T04:20:07.164Z,1011.98
2016-08-09T04:21:07.152Z,1012
2016-08-09T04:22:07.147Z,1012
2016-08-09T04:23:07.133Z,1012.02
2016-08-09T04:24:07.123Z,1011.98
2016-08-09T04:25:07.112Z,1012
2016-08-09T04:26:07.103Z,1011.97
2016-08-09T04:27:07.092Z,1011.97
2016-08-09T04:28:07.082Z,1011.98
2016-08-09T04:29:07.071Z,1011.94
2016-08-09T04:30:07.061Z,1011.94
2016-08-09T04:31:07.050Z,1011.97
2016-08-09T04:32:07.039Z,1011.95
2016-08-09T04:33:07.031Z,1011.95
2016-08-09T04:34:07.019Z,1011.95
2016-08-09T04:35:07.009Z,1011.98
2016-08-09T04:36:06.999Z,1011.99
2016-08-09T04:37:06.987Z,1012.02
2016-08-09T04:38:06.979Z,1011.98
2016-08-09T04:39:06.966Z,1012
2016-08-09T04:40:06.957Z,1012
2016-08-09T04:41:06.946Z,1012.02
2016-08-09T04:42:06.936Z,1012.05
2016-08-09T04:43:06.926Z,1012.04
2016-08-09T04:44:06.918Z,1012.02
2016-08-09T04:45:06.907Z,1012.11
2016-08-09T04:46:06.898Z,1012.16
2016-08-09T04:47:06.888Z,1012.17
2016-08-09T04:48:06.875Z,1012.19
2016-08-09T04:49:06.868Z,1012.21
2016-08-09T04:50:06.856Z,1012.26
2016-08-09T04:51:06.844Z,1012.26
2016-08-09T04:52:06.836Z,1012.3
2016-08-09T04:53:06.824Z,1012.29
2016-08-09T04:54:06.814Z,1012.27
2016-08-09T04:55:06.809Z,1012.28
2016-08-09T04:56:06.795Z,1012.29
2016-08-09T04:57:06.784Z,1012.28
2016-08-09T04:58:06.772Z,1012.32
2016-08-09T04:59:06.765Z,1012.28
2016-08-09T05:00:06.762Z,1012.25
2016-08-09T05:01:06.747Z,1012.26
2016-08-09T05:02:06.733Z,1012.24
2016-08-09T05:03:06.722Z,1012.24
2016-08-09T05:04:06.915Z,1012.22
2016-08-09T05:05:06.700Z,1012.27
2016-08-09T05:06:06.690Z,1012.2
2016-08-09T05:07:06.681Z,1012.17
2016-08-09T05:08:06.670Z,1012.2
2016-08-09T05:09:06.660Z,1012.17
2016-08-09T05:10:06.651Z,1012.2
2016-08-09T05:11:06.744Z,1012.22
2016-08-09T05:12:06.630Z,1012.19
2016-08-09T05:13:06.618Z,1012.18
2016-08-09T05:14:06.608Z,1012.2
2016-08-09T05:15:06.599Z,1012.21
2016-08-09T05:16:06.590Z,1012.24
2016-08-09T05:17:06.576Z,1012.25
2016-08-09T05:18:06.568Z,1012.27
2016-08-09T05:19:06.558Z,1012.26
2016-08-09T05:20:06.547Z,1012.27
2016-08-09T05:21:06.541Z,1012.26
2016-08-09T05:22:06.529Z,1012.27
2016-08-09T05:23:06.516Z,1012.27
2016-08-09T05:24:06.506Z,1012.3
2016-08-09T05:25:06.495Z,1012.28
2016-08-09T05:26:06.486Z,1012.28
2016-08-09T05:27:06.477Z,1012.29
2016-08-09T05:28:06.469Z,1012.27
2016-08-09T05:29:06.456Z,1012.23
2016-08-09T05:30:06.444Z,1012.2
2016-08-09T05:31:06.436Z,1012.17
2016-08-09T05:32:06.429Z,1012.17
2016-08-09T05:33:06.416Z,1012.13
2016-08-09T05:34:06.406Z,1012.14
2016-08-09T05:35:06.398Z,1012.14
2016-08-09T05:36:06.386Z,1012.15
2016-08-09T05:37:06.376Z,1012.15
2016-08-09T05:38:06.365Z,1012.18
2016-08-09T05:39:06.355Z,1012.17
2016-08-09T05:40:06.345Z,1012.21
2016-08-09T05:41:06.337Z,1012.21
2016-08-09T05:42:06.326Z,1012.22
2016-08-09T05:43:06.317Z,1012.22
2016-08-09T05:44:06.306Z,1012.29
2016-08-09T05:45:06.294Z,1012.33
2016-08-09T05:46:06.286Z,1012.32
2016-08-09T05:47:06.277Z,1012.37
2016-08-09T05:49:06.258Z,1012.38
2016-08-09T05:50:06.250Z,1012.42
2016-08-09T05:51:06.236Z,1012.44
2016-08-09T05:52:06.225Z,1012.43
2016-08-09T05:53:06.214Z,1012.37
2016-08-09T05:54:06.210Z,1012.38
2016-08-09T05:55:06.196Z,1012.34
2016-08-09T05:56:06.186Z,1012.35
2016-08-09T05:57:06.175Z,1012.35
2016-08-09T05:58:06.165Z,1012.33
2016-08-09T05:59:06.159Z,1012.33
2016-08-09T06:00:06.194Z,1012.33
2016-08-09T06:01:06.139Z,1012.33
2016-08-09T06:02:06.125Z,1012.34
2016-08-09T06:03:06.114Z,1012.33
2016-08-09T06:04:06.102Z,1012.36
2016-08-09T06:05:06.094Z,1012.34
2016-08-09T06:06:06.088Z,1012.39
2016-08-09T06:07:06.074Z,1012.4
2016-08-09T06:08:06.064Z,1012.38
2016-08-09T06:09:06.059Z,1012.39
2016-08-09T06:10:06.044Z,1012.38
2016-08-09T06:11:06.033Z,1012.38
2016-08-09T06:12:06.023Z,1012.41
2016-08-09T06:13:06.013Z,1012.4
2016-08-09T06:14:06.001Z,1012.41
2016-08-09T06:15:05.993Z,1012.39
2016-08-09T06:16:05.983Z,1012.41
2016-08-09T06:17:05.972Z,1012.39
2016-08-09T06:18:05.964Z,1012.36
2016-08-09T06:19:05.952Z,1012.37
2016-08-09T06:20:05.943Z,1012.32
2016-08-09T06:21:05.933Z,1012.37
2016-08-09T06:22:05.923Z,1012.38
2016-08-09T06:23:05.914Z,1012.38
2016-08-09T06:24:05.903Z,1012.43
2016-08-09T06:25:05.899Z,1012.44
2016-08-09T06:26:05.884Z,1012.42
2016-08-09T06:27:05.874Z,1012.47
2016-08-09T06:28:05.865Z,1012.45
2016-08-09T06:29:05.855Z,1012.44
2016-08-09T06:30:05.844Z,1012.43
2016-08-09T06:31:05.837Z,1012.43
2016-08-09T06:32:05.828Z,1012.43
2016-08-09T06:33:05.818Z,1012.46
2016-08-09T06:34:05.812Z,1012.45
2016-08-09T06:35:05.798Z,1012.45
2016-08-09T06:36:05.787Z,1012.42
2016-08-09T06:37:05.776Z,1012.44
2016-08-09T06:38:05.768Z,1012.47
2016-08-09T06:39:05.757Z,1012.46
2016-08-09T06:40:05.748Z,1012.48
2016-08-09T06:41:05.739Z,1012.5
2016-08-09T06:42:05.728Z,1012.53
2016-08-09T06:43:05.718Z,1012.53
2016-08-09T06:44:05.714Z,1012.55
2016-08-09T06:45:05.700Z,1012.57
2016-08-09T06:46:05.693Z,1012.6
2016-08-09T06:47:05.680Z,1012.62
2016-08-09T06:48:05.670Z,1012.64
2016-08-09T06:49:05.662Z,1012.65
2016-08-09T06:53:05.622Z,1012.65
2016-08-09T06:54:05.612Z,1012.62
2016-08-09T06:55:05.600Z,1012.65
2016-08-09T06:56:05.589Z,1012.65
2016-08-09T06:57:05.582Z,1012.64
2016-08-09T06:58:05.571Z,1012.68
2016-08-09T06:59:05.562Z,1012.64
2016-08-09T07:00:05.556Z,1012.63
2016-08-09T07:01:05.543Z,1012.63
2016-08-09T07:02:05.532Z,1012.61
2016-08-09T07:03:05.521Z,1012.61
2016-08-09T07:04:05.512Z,1012.6
2016-08-09T07:05:05.702Z,1012.57
2016-08-09T07:06:05.502Z,1012.62
2016-08-09T07:07:05.481Z,1012.61
2016-08-09T07:08:05.474Z,1012.62
2016-08-09T07:09:05.462Z,1012.63
2016-08-09T07:10:05.452Z,1012.61
2016-08-09T07:11:05.442Z,1012.63
2016-08-09T07:12:05.435Z,1012.59
2016-08-09T07:13:05.424Z,1012.62
2016-08-09T07:14:05.465Z,1012.6
2016-08-09T07:15:05.406Z,1012.58
2016-08-09T07:16:05.396Z,1012.58
2016-08-09T07:17:05.385Z,1012.56
2016-08-09T07:18:05.377Z,1012.53
2016-08-09T07:19:05.367Z,1012.52
2016-08-09T07:20:05.356Z,1012.54
2016-08-09T07:21:05.346Z,1012.53
2016-08-09T07:22:05.337Z,1012.53
2016-08-09T07:23:05.331Z,1012.56
2016-08-09T07:24:05.321Z,1012.58
2016-08-09T07:25:05.310Z,1012.58
2016-08-09T07:26:05.301Z,1012.59
2016-08-09T07:27:05.292Z,1012.61
2016-08-09T07:28:05.280Z,1012.64
2016-08-09T07:29:05.276Z,1012.62
2016-08-09T07:30:05.263Z,1012.65
2016-08-09T07:31:05.251Z,1012.66
2016-08-09T07:32:05.243Z,1012.66
2016-08-09T07:33:05.235Z,1012.68
2016-08-09T07:34:05.226Z,1012.72
2016-08-09T07:35:05.214Z,1012.69
2016-08-09T07:36:05.206Z,1012.7
2016-08-09T07:37:05.196Z,1012.74
2016-08-09T07:38:05.188Z,1012.73
2016-08-09T07:39:05.179Z,1012.7
2016-08-09T07:40:05.168Z,1012.69
2016-08-09T07:41:05.159Z,1012.69
2016-08-09T07:42:05.149Z,1012.76
2016-08-09T07:43:05.140Z,1012.8
2016-08-09T07:44:05.131Z,1012.78
2016-08-09T07:45:05.124Z,1012.77
2016-08-09T07:46:05.115Z,1012.75
2016-08-09T07:47:05.106Z,1012.72
2016-08-09T07:48:05.101Z,1012.71
2016-08-09T07:49:05.087Z,1012.7
2016-08-09T07:50:05.077Z,1012.71
2016-08-09T07:51:05.068Z,1012.72
2016-08-09T07:52:05.064Z,1012.73
2016-08-09T07:53:05.054Z,1012.82
2016-08-09T07:54:05.050Z,1012.88
2016-08-09T07:55:05.037Z,1012.88
2016-08-09T07:56:05.028Z,1012.84
2016-08-09T07:57:05.018Z,1012.88
2016-08-09T07:58:05.011Z,1012.87
2016-08-09T07:59:05.002Z,1012.87
2016-08-09T08:00:04.994Z,1012.89
2016-08-09T08:01:04.986Z,1012.83
2016-08-09T08:02:04.979Z,1012.79
2016-08-09T08:03:04.970Z,1012.8
2016-08-09T08:04:04.961Z,1012.84
2016-08-09T08:05:04.954Z,1012.86
2016-08-09T08:06:04.947Z,1012.81
2016-08-09T08:07:04.939Z,1012.79
2016-08-09T08:08:04.931Z,1012.8
2016-08-09T08:09:04.924Z,1012.79
2016-08-09T08:10:04.916Z,1012.78
2016-08-09T08:11:04.907Z,1012.82
2016-08-09T08:12:04.905Z,1012.81
2016-08-09T08:13:04.892Z,1012.83
2016-08-09T08:14:04.889Z,1012.89
2016-08-09T08:15:04.875Z,1012.86
2016-08-09T08:16:04.869Z,1012.79
2016-08-09T08:17:04.863Z,1012.79
2016-08-09T08:18:04.854Z,1012.77
2016-08-09T08:19:04.846Z,1012.81
2016-08-09T08:20:04.839Z,1012.8
2016-08-09T08:21:04.831Z,1012.81
2016-08-09T08:22:04.824Z,1012.8
2016-08-09T08:23:04.819Z,1012.79
2016-08-09T08:24:04.816Z,1012.72
2016-08-09T08:25:04.807Z,1012.77
2016-08-09T08:26:04.796Z,1012.79
2016-08-09T08:27:04.791Z,1012.76
2016-08-09T08:28:04.784Z,1012.79
2016-08-09T08:29:04.775Z,1012.85
2016-08-09T08:30:04.769Z,1012.76
2016-08-09T08:31:04.771Z,1012.8
2016-08-09T08:32:04.758Z,1012.76
2016-08-09T08:33:04.749Z,1012.81
2016-08-09T08:34:04.743Z,1012.85
2016-08-09T08:35:04.741Z,1012.86
2016-08-09T08:36:04.731Z,1012.85
2016-08-09T08:37:04.723Z,1012.86
2016-08-09T08:38:04.718Z,1012.88
2016-08-09T08:39:04.712Z,1012.89
2016-08-09T08:40:04.703Z,1012.87
2016-08-09T08:41:04.697Z,1012.91
2016-08-09T08:42:04.691Z,1012.94
2016-08-09T08:43:04.686Z,1013
2016-08-09T08:44:04.678Z,1012.93
2016-08-09T08:45:04.672Z,1012.96
2016-08-09T08:46:04.670Z,1012.92
2016-08-09T08:47:04.665Z,1012.88
2016-08-09T08:48:04.656Z,1012.93
2016-08-09T08:49:04.653Z,1012.87
2016-08-09T08:50:04.645Z,1012.88
2016-08-09T08:51:04.641Z,1012.89
2016-08-09T08:52:04.637Z,1012.9
2016-08-09T08:53:04.631Z,1012.87
2016-08-09T08:54:04.628Z,1012.88
2016-08-09T08:55:04.621Z,1012.88
2016-08-09T08:56:04.617Z,1012.89
2016-08-09T08:57:04.612Z,1012.84
2016-08-09T08:58:04.607Z,1012.84
2016-08-09T08:59:04.601Z,1012.91
2016-08-09T09:00:04.598Z,1012.87
2016-08-09T09:01:04.593Z,1012.83
2016-08-09T09:02:04.584Z,1012.79
2016-08-09T09:03:04.581Z,1012.88
2016-08-09T09:04:04.577Z,1012.9
2016-08-09T09:05:04.776Z,1012.89
2016-08-09T09:06:04.564Z,1012.86
2016-08-09T09:07:04.559Z,1012.88
2016-08-09T09:08:04.555Z,1012.93
2016-08-09T09:09:04.547Z,1012.91
2016-08-09T09:10:04.543Z,1012.95
2016-08-09T09:11:04.536Z,1012.94
2016-08-09T09:12:04.531Z,1012.96
2016-08-09T09:13:04.525Z,1012.99
2016-08-09T09:14:04.519Z,1012.96
2016-08-09T09:15:04.514Z,1012.95
2016-08-09T09:16:04.557Z,1012.96
2016-08-09T09:17:04.506Z,1012.95
2016-08-09T09:18:04.497Z,1012.94
2016-08-09T09:19:04.490Z,1013.03
2016-08-09T09:20:04.484Z,1012.96
2016-08-09T09:21:04.478Z,1012.98
2016-08-09T09:22:04.473Z,1012.95
2016-08-09T09:23:04.464Z,1012.95
2016-08-09T09:24:04.457Z,1013.01
2016-08-09T09:25:04.451Z,1013
2016-08-09T09:26:04.447Z,1012.93
2016-08-09T09:27:04.446Z,1012.98
2016-08-09T09:28:04.435Z,1012.99
2016-08-09T09:29:04.426Z,1013.01
2016-08-09T09:30:04.419Z,1013
2016-08-09T09:31:04.412Z,1012.99
2016-08-09T09:32:04.406Z,1013
2016-08-09T09:33:04.398Z,1012.96
2016-08-09T09:34:04.392Z,1012.98
2016-08-09T09:35:04.384Z,1012.94
2016-08-09T09:36:04.378Z,1012.98
2016-08-09T09:37:04.372Z,1012.98
2016-08-09T09:38:04.370Z,1012.95
2016-08-09T09:39:04.356Z,1013
2016-08-09T09:40:04.350Z,1012.99
2016-08-09T09:41:04.345Z,1013.01
2016-08-09T09:42:04.335Z,1012.96
2016-08-09T09:43:04.327Z,1012.95
2016-08-09T09:44:04.322Z,1012.94
2016-08-09T09:45:04.315Z,1012.97
2016-08-09T09:46:04.307Z,1012.92
2016-08-09T09:47:04.300Z,1012.95
2016-08-09T09:48:04.295Z,1012.97
2016-08-09T09:50:04.281Z,1012.97
2016-08-09T09:51:04.274Z,1013.04
2016-08-09T09:52:04.268Z,1012.97
2016-08-09T09:53:04.261Z,1013.01
2016-08-09T09:54:04.255Z,1012.97
2016-08-09T09:55:04.245Z,1012.98
2016-08-09T09:56:04.237Z,1012.99
2016-08-09T09:57:04.230Z,1013.02
2016-08-09T09:58:04.225Z,1012.94
2016-08-09T09:59:04.218Z,1012.96
2016-08-09T10:00:04.213Z,1013.05
2016-08-09T10:01:04.204Z,1013
2016-08-09T10:02:04.195Z,1013.05
2016-08-09T10:03:04.187Z,1013.05
2016-08-09T10:05:04.171Z,1012.98
2016-08-09T10:06:04.165Z,1012.98
2016-08-09T10:07:04.210Z,1013.02
2016-08-09T10:08:04.149Z,1012.98
2016-08-09T10:09:04.141Z,1013.07
2016-08-09T10:10:04.137Z,1013.05
2016-08-09T10:11:04.130Z,1013.01
2016-08-09T10:12:04.122Z,1013.02
2016-08-09T10:13:04.117Z,1013.03
2016-08-09T10:14:04.108Z,1013.04
2016-08-09T10:15:04.199Z,1013.02
2016-08-09T10:16:04.094Z,1013.03
2016-08-09T10:17:04.088Z,1013.08
2016-08-09T10:18:04.083Z,1013.01
2016-08-09T10:19:04.076Z,1013.01
2016-08-09T10:20:04.069Z,1012.98
2016-08-09T10:21:04.064Z,1013.06
2016-08-09T10:22:04.065Z,1013.04
2016-08-09T10:23:04.047Z,1013.05
2016-08-09T10:24:04.040Z,1013.02
2016-08-09T10:25:04.036Z,1012.98
2016-08-09T10:26:04.030Z,1013.04
2016-08-09T10:27:04.022Z,1013.11
2016-08-09T10:28:04.016Z,1013.03
2016-08-09T10:29:04.010Z,1013.04
2016-08-09T10:30:04.004Z,1012.99
2016-08-09T10:31:03.999Z,1013.12
2016-08-09T10:32:03.993Z,1013.04
2016-08-09T10:33:03.988Z,1013.06
2016-08-09T10:34:03.983Z,1013.04
2016-08-09T10:35:03.979Z,1013.17
2016-08-09T10:36:03.973Z,1013.2
2016-08-09T10:37:03.967Z,1013.2
2016-08-09T10:38:03.964Z,1013.25
2016-08-09T10:39:03.960Z,1013.15
2016-08-09T10:40:03.956Z,1013.25
2016-08-09T10:41:03.952Z,1013.24
2016-08-09T10:42:03.948Z,1013.24
2016-08-09T10:43:03.945Z,1013.19
2016-08-09T10:44:03.942Z,1013.15
2016-08-09T10:45:03.940Z,1013.21
2016-08-09T10:46:03.937Z,1013.19
2016-08-09T10:47:03.936Z,1013.09
2016-08-09T10:48:03.934Z,1013.15
2016-08-09T10:49:03.933Z,1012.93
2016-08-09T10:50:03.932Z,1013.05
2016-08-09T10:52:03.929Z,1013.13
2016-08-09T10:53:03.928Z,1013.13
2016-08-09T10:54:03.928Z,1012.93
2016-08-09T10:55:03.930Z,1013.1
2016-08-09T10:56:03.929Z,1012.91
2016-08-09T10:57:03.928Z,1012.92
2016-08-09T10:58:03.927Z,1012.86
2016-08-09T10:59:03.927Z,1012.93
2016-08-09T11:00:03.925Z,1012.94
2016-08-09T11:01:03.924Z,1012.94
2016-08-09T11:02:03.924Z,1012.92
2016-08-09T11:03:03.923Z,1012.95
2016-08-09T11:04:03.924Z,1012.93
2016-08-09T11:05:04.193Z,1012.82
2016-08-09T11:06:03.930Z,1012.83
2016-08-09T11:07:03.926Z,1012.91
2016-08-09T11:08:03.928Z,1012.81
2016-08-09T11:09:03.923Z,1012.82
2016-08-09T11:10:03.923Z,1012.81
2016-08-09T11:11:03.928Z,1012.85
2016-08-09T11:12:03.927Z,1012.8
2016-08-09T11:13:03.923Z,1012.84
2016-08-09T11:14:03.922Z,1012.79
2016-08-09T11:15:03.924Z,1012.82
2016-08-09T11:16:03.926Z,1012.78
2016-08-09T11:17:03.926Z,1012.81
2016-08-09T11:18:03.929Z,1012.81
2016-08-09T11:19:03.930Z,1012.81
2016-08-09T11:20:03.930Z,1012.78
2016-08-09T11:21:03.933Z,1012.81
2016-08-09T11:22:03.932Z,1012.8
2016-08-09T11:23:03.935Z,1012.81
2016-08-09T11:24:03.942Z,1012.82
2016-08-09T11:25:03.937Z,1012.76
2016-08-09T11:26:03.941Z,1012.76
2016-08-09T11:27:03.942Z,1012.73
2016-08-09T11:28:03.953Z,1012.81
2016-08-09T11:29:03.943Z,1012.78
2016-08-09T11:30:03.943Z,1012.75
2016-08-09T11:31:03.958Z,1012.82
2016-08-09T11:32:03.945Z,1012.78
2016-08-09T11:33:03.942Z,1012.77
2016-08-09T11:34:03.940Z,1012.8
2016-08-09T11:35:03.940Z,1012.81
2016-08-09T11:36:03.939Z,1012.79
2016-08-09T11:37:03.937Z,1012.8
2016-08-09T11:38:03.935Z,1012.84
2016-08-09T11:39:03.934Z,1012.85
2016-08-09T11:40:03.930Z,1012.9
2016-08-09T11:41:03.928Z,1012.87
2016-08-09T11:42:03.925Z,1012.9
2016-08-09T11:43:03.919Z,1012.87
2016-08-09T11:44:03.918Z,1012.94
2016-08-09T11:45:03.914Z,1012.91
2016-08-09T11:46:03.911Z,1012.91
2016-08-09T11:47:03.906Z,1012.89
2016-08-09T11:48:03.899Z,1012.9
2016-08-09T11:49:03.895Z,1012.91
2016-08-09T11:50:03.891Z,1012.91
2016-08-09T11:51:03.892Z,1012.91
2016-08-09T11:52:03.881Z,1012.99
2016-08-09T11:53:03.877Z,1012.99
2016-08-09T11:54:03.869Z,1012.96
2016-08-09T11:55:03.866Z,1013.04
2016-08-09T11:56:03.861Z,1012.98
2016-08-09T11:57:03.861Z,1013
2016-08-09T11:58:03.851Z,1012.98
2016-08-09T11:59:03.846Z,1012.98
2016-08-09T12:00:03.854Z,1013.01
2016-08-09T12:01:03.841Z,1013.05
2016-08-09T12:02:03.828Z,1013.05
2016-08-09T12:03:03.821Z,1013.01
2016-08-09T12:04:03.820Z,1013
2016-08-09T12:05:03.811Z,1013.01
2016-08-09T12:06:03.806Z,1012.94
2016-08-09T12:07:03.800Z,1013.07
2016-08-09T12:08:03.793Z,1013.07
2016-08-09T12:09:03.789Z,1013.04
2016-08-09T12:10:03.784Z,1013.02
2016-08-09T12:11:03.775Z,1013.08
2016-08-09T12:12:03.768Z,1013.08
2016-08-09T12:13:03.764Z,1013.06
2016-08-09T12:14:03.758Z,1013.08
2016-08-09T12:15:03.751Z,1013.05